Decoded Metar for EPKT (KATOWICE in POLAND) (IATA:KTW) | Meteo·Mobile Aviation Weather
aviador You're here:

EPKT Decoded Metar

KATOWICE in POLAND
Report Time2019-03-23 08:30:00
UTC Time2019-03-23 09:02:20
Flight Rules vfr VFR
Wind130° at 09 kt
W.Decomp.*RWY 09: 7.3 kt HW 5.3 kt RCW
W.Rank130° ranks 19
Current wind is above 130° avg. (5.1)
Visibility9999 m
Phenomena:N/A
Clouds:N/A
Expected CloudBase > 2,400 ft AGL from Temp-Dew spread
CeilingNone
Temp10°C (ISA -3)
Dew Point04°C (67% RH)
AAT5.5°C
QNH1028 hPa
Density Alt164 ft
Elevation932 ft
Report Wrong Elevation
Raw Report
METAR EPKT 230830Z 13009KT 100V160 CAVOK 10/04 Q1028=

Extra information for EPKT:More info

Metar Taf Metar & Taf Last 4 Metars F.Rules Stats Wind Profile Meteogram Temp Stats Airport Information Weather charts Add Link Nearby VenuesMetar ALERT Operation Metar Decoded Social comments